sensor_id;sensor_type;location;lat;lon;timestamp;P1;durP1;ratioP1;P2;durP2;ratioP2
5052;SDS011;2545;50.892;5.740;2023-03-12T00:01:41;6.20;;;5.13;;
5052;SDS011;2545;50.892;5.740;2023-03-12T00:04:06;9.53;;;5.20;;
5052;SDS011;2545;50.892;5.740;2023-03-12T00:06:31;8.70;;;5.10;;
5052;SDS011;2545;50.892;5.740;2023-03-12T00:08:57;15.53;;;5.40;;
5052;SDS011;2545;50.892;5.740;2023-03-12T00:11:25;13.33;;;4.70;;
5052;SDS011;2545;50.892;5.740;2023-03-12T00:13:52;10.47;;;5.30;;
5052;SDS011;2545;50.892;5.740;2023-03-12T00:16:19;10.03;;;5.63;;
5052;SDS011;2545;50.892;5.740;2023-03-12T00:18:48;10.63;;;5.50;;
5052;SDS011;2545;50.892;5.740;2023-03-12T00:21:15;11.60;;;5.70;;
5052;SDS011;2545;50.892;5.740;2023-03-12T00:23:40;7.90;;;5.37;;
5052;SDS011;2545;50.892;5.740;2023-03-12T00:26:07;12.07;;;5.37;;
5052;SDS011;2545;50.892;5.740;2023-03-12T00:28:35;12.73;;;6.60;;
5052;SDS011;2545;50.892;5.740;2023-03-12T00:31:01;14.23;;;5.30;;
5052;SDS011;2545;50.892;5.740;2023-03-12T00:33:28;11.93;;;6.00;;
5052;SDS011;2545;50.892;5.740;2023-03-12T00:35:53;10.80;;;5.80;;
5052;SDS011;2545;50.892;5.740;2023-03-12T00:38:19;10.97;;;5.63;;
5052;SDS011;2545;50.892;5.740;2023-03-12T00:40:45;7.07;;;4.73;;
5052;SDS011;2545;50.892;5.740;2023-03-12T00:43:11;9.40;;;6.17;;
5052;SDS011;2545;50.892;5.740;2023-03-12T00:45:36;8.73;;;5.27;;
5052;SDS011;2545;50.892;5.740;2023-03-12T00:48:02;18.93;;;5.37;;
5052;SDS011;2545;50.892;5.740;2023-03-12T00:50:27;10.73;;;6.13;;
5052;SDS011;2545;50.892;5.740;2023-03-12T00:52:52;10.07;;;5.60;;
5052;SDS011;2545;50.892;5.740;2023-03-12T00:55:18;14.07;;;5.40;;
5052;SDS011;2545;50.892;5.740;2023-03-12T00:57:43;14.53;;;6.07;;
5052;SDS011;2545;50.892;5.740;2023-03-12T01:00:09;9.10;;;6.33;;
5052;SDS011;2545;50.892;5.740;2023-03-12T01:02:36;12.70;;;6.03;;
5052;SDS011;2545;50.892;5.740;2023-03-12T01:05:02;10.20;;;5.90;;
5052;SDS011;2545;50.892;5.740;2023-03-12T01:07:29;8.87;;;4.63;;
5052;SDS011;2545;50.892;5.740;2023-03-12T01:09:54;9.20;;;5.10;;
5052;SDS011;2545;50.892;5.740;2023-03-12T01:12:19;7.63;;;5.13;;
5052;SDS011;2545;50.892;5.740;2023-03-12T01:14:45;8.80;;;4.40;;
5052;SDS011;2545;50.892;5.740;2023-03-12T01:17:10;11.63;;;4.97;;
5052;SDS011;2545;50.892;5.740;2023-03-12T01:19:35;14.50;;;5.80;;
5052;SDS011;2545;50.892;5.740;2023-03-12T01:22:00;10.10;;;4.67;;
5052;SDS011;2545;50.892;5.740;2023-03-12T01:24:26;9.53;;;5.43;;
5052;SDS011;2545;50.892;5.740;2023-03-12T01:26:51;8.23;;;4.87;;
5052;SDS011;2545;50.892;5.740;2023-03-12T01:29:17;11.03;;;5.03;;
5052;SDS011;2545;50.892;5.740;2023-03-12T01:31:42;8.00;;;3.97;;
5052;SDS011;2545;50.892;5.740;2023-03-12T01:34:09;8.60;;;4.70;;
5052;SDS011;2545;50.892;5.740;2023-03-12T01:36:35;15.50;;;5.07;;
5052;SDS011;2545;50.892;5.740;2023-03-12T01:39:01;7.33;;;3.70;;
5052;SDS011;2545;50.892;5.740;2023-03-12T01:41:27;7.10;;;3.80;;
5052;SDS011;2545;50.892;5.740;2023-03-12T01:43:55;6.80;;;3.80;;
5052;SDS011;2545;50.892;5.740;2023-03-12T01:46:26;7.90;;;4.17;;
5052;SDS011;2545;50.892;5.740;2023-03-12T01:49:07;6.10;;;4.20;;
5052;SDS011;2545;50.892;5.740;2023-03-12T01:54:10;7.73;;;3.90;;
5052;SDS011;2545;50.892;5.740;2023-03-12T01:56:41;6.23;;;3.80;;
5052;SDS011;2545;50.892;5.740;2023-03-12T01:59:09;16.13;;;3.50;;
5052;SDS011;2545;50.892;5.740;2023-03-12T02:01:39;9.87;;;3.33;;
5052;SDS011;2545;50.892;5.740;2023-03-12T02:04:06;8.10;;;3.30;;
5052;SDS011;2545;50.892;5.740;2023-03-12T02:06:33;5.87;;;2.70;;
5052;SDS011;2545;50.892;5.740;2023-03-12T02:09:04;8.23;;;4.20;;
5052;SDS011;2545;50.892;5.740;2023-03-12T02:11:31;15.53;;;3.57;;
5052;SDS011;2545;50.892;5.740;2023-03-12T02:13:56;4.07;;;2.50;;
5052;SDS011;2545;50.892;5.740;2023-03-12T02:16:21;3.60;;;2.80;;
5052;SDS011;2545;50.892;5.740;2023-03-12T02:18:47;4.23;;;2.50;;
5052;SDS011;2545;50.892;5.740;2023-03-12T02:26:17;3.80;;;2.60;;
5052;SDS011;2545;50.892;5.740;2023-03-12T02:28:45;4.60;;;2.50;;
5052;SDS011;2545;50.892;5.740;2023-03-12T02:31:14;15.83;;;3.63;;
5052;SDS011;2545;50.892;5.740;2023-03-12T02:33:43;5.00;;;2.63;;
5052;SDS011;2545;50.892;5.740;2023-03-12T02:36:09;4.80;;;2.30;;
5052;SDS011;2545;50.892;5.740;2023-03-12T02:38:42;10.83;;;3.10;;
5052;SDS011;2545;50.892;5.740;2023-03-12T02:41:15;4.50;;;2.97;;
5052;SDS011;2545;50.892;5.740;2023-03-12T02:43:44;6.93;;;3.10;;
5052;SDS011;2545;50.892;5.740;2023-03-12T02:46:13;21.57;;;3.20;;
5052;SDS011;2545;50.892;5.740;2023-03-12T02:48:38;4.40;;;2.10;;
5052;SDS011;2545;50.892;5.740;2023-03-12T02:51:04;6.87;;;2.57;;
5052;SDS011;2545;50.892;5.740;2023-03-12T02:53:29;4.27;;;2.50;;
5052;SDS011;2545;50.892;5.740;2023-03-12T02:55:55;2.80;;;2.27;;
5052;SDS011;2545;50.892;5.740;2023-03-12T02:58:20;5.73;;;2.90;;
5052;SDS011;2545;50.892;5.740;2023-03-12T03:00:45;7.43;;;2.60;;
5052;SDS011;2545;50.892;5.740;2023-03-12T03:03:11;4.87;;;2.70;;
5052;SDS011;2545;50.892;5.740;2023-03-12T03:05:36;5.70;;;2.80;;
5052;SDS011;2545;50.892;5.740;2023-03-12T03:08:02;5.27;;;2.20;;
5052;SDS011;2545;50.892;5.740;2023-03-12T03:10:28;3.20;;;2.13;;
5052;SDS011;2545;50.892;5.740;2023-03-12T03:12:53;7.77;;;3.80;;
5052;SDS011;2545;50.892;5.740;2023-03-12T03:15:18;5.30;;;2.40;;
5052;SDS011;2545;50.892;5.740;2023-03-12T03:17:44;6.80;;;2.60;;
5052;SDS011;2545;50.892;5.740;2023-03-12T03:20:09;6.73;;;2.63;;
5052;SDS011;2545;50.892;5.740;2023-03-12T03:22:36;7.60;;;2.60;;
5052;SDS011;2545;50.892;5.740;2023-03-12T03:25:02;3.90;;;1.97;;
5052;SDS011;2545;50.892;5.740;2023-03-12T03:27:28;9.83;;;2.90;;
5052;SDS011;2545;50.892;5.740;2023-03-12T03:29:54;4.33;;;2.60;;
5052;SDS011;2545;50.892;5.740;2023-03-12T03:32:19;4.80;;;2.40;;
5052;SDS011;2545;50.892;5.740;2023-03-12T03:34:44;8.93;;;2.83;;
5052;SDS011;2545;50.892;5.740;2023-03-12T03:37:10;11.60;;;3.07;;
5052;SDS011;2545;50.892;5.740;2023-03-12T03:39:35;5.40;;;2.60;;
5052;SDS011;2545;50.892;5.740;2023-03-12T03:42:00;7.40;;;2.60;;
5052;SDS011;2545;50.892;5.740;2023-03-12T03:44:26;12.43;;;2.60;;
5052;SDS011;2545;50.892;5.740;2023-03-12T03:46:51;10.73;;;3.60;;
5052;SDS011;2545;50.892;5.740;2023-03-12T03:49:18;5.50;;;2.20;;
5052;SDS011;2545;50.892;5.740;2023-03-12T03:51:43;7.57;;;2.20;;
5052;SDS011;2545;50.892;5.740;2023-03-12T03:54:09;3.90;;;2.53;;
5052;SDS011;2545;50.892;5.740;2023-03-12T03:56:35;6.10;;;2.87;;
5052;SDS011;2545;50.892;5.740;2023-03-12T03:59:00;8.40;;;3.40;;
5052;SDS011;2545;50.892;5.740;2023-03-12T04:01:27;5.40;;;3.10;;
5052;SDS011;2545;50.892;5.740;2023-03-12T04:03:52;9.33;;;3.43;;
5052;SDS011;2545;50.892;5.740;2023-03-12T04:06:18;10.57;;;3.80;;
5052;SDS011;2545;50.892;5.740;2023-03-12T04:08:44;7.20;;;3.40;;
5052;SDS011;2545;50.892;5.740;2023-03-12T04:11:19;10.63;;;3.53;;
5052;SDS011;2545;50.892;5.740;2023-03-12T04:13:45;19.77;;;3.90;;
5052;SDS011;2545;50.892;5.740;2023-03-12T04:16:11;8.83;;;2.83;;
5052;SDS011;2545;50.892;5.740;2023-03-12T04:18:37;7.00;;;3.40;;
5052;SDS011;2545;50.892;5.740;2023-03-12T04:21:04;10.87;;;3.97;;
5052;SDS011;2545;50.892;5.740;2023-03-12T04:23:31;10.13;;;4.17;;
5052;SDS011;2545;50.892;5.740;2023-03-12T04:25:56;7.10;;;4.10;;
5052;SDS011;2545;50.892;5.740;2023-03-12T04:28:22;5.60;;;3.83;;
5052;SDS011;2545;50.892;5.740;2023-03-12T04:30:57;4.97;;;3.63;;
5052;SDS011;2545;50.892;5.740;2023-03-12T04:33:27;8.20;;;4.30;;
5052;SDS011;2545;50.892;5.740;2023-03-12T04:35:54;7.50;;;3.50;;
5052;SDS011;2545;50.892;5.740;2023-03-12T04:38:20;19.43;;;4.10;;
5052;SDS011;2545;50.892;5.740;2023-03-12T04:40:46;8.57;;;3.40;;
5052;SDS011;2545;50.892;5.740;2023-03-12T04:43:12;6.80;;;3.10;;
5052;SDS011;2545;50.892;5.740;2023-03-12T04:45:37;11.17;;;3.93;;
5052;SDS011;2545;50.892;5.740;2023-03-12T04:48:03;8.20;;;3.40;;
5052;SDS011;2545;50.892;5.740;2023-03-12T04:50:29;5.13;;;3.27;;
5052;SDS011;2545;50.892;5.740;2023-03-12T04:52:54;5.40;;;3.60;;
5052;SDS011;2545;50.892;5.740;2023-03-12T04:55:20;9.07;;;3.67;;
5052;SDS011;2545;50.892;5.740;2023-03-12T04:57:45;10.63;;;3.50;;
5052;SDS011;2545;50.892;5.740;2023-03-12T05:00:11;5.00;;;3.27;;
5052;SDS011;2545;50.892;5.740;2023-03-12T05:02:37;10.80;;;3.40;;
5052;SDS011;2545;50.892;5.740;2023-03-12T05:05:04;8.83;;;3.30;;
5052;SDS011;2545;50.892;5.740;2023-03-12T05:07:31;7.97;;;3.10;;
5052;SDS011;2545;50.892;5.740;2023-03-12T05:09:56;11.30;;;3.60;;
5052;SDS011;2545;50.892;5.740;2023-03-12T05:12:22;15.60;;;3.60;;
5052;SDS011;2545;50.892;5.740;2023-03-12T05:14:47;9.30;;;3.73;;
5052;SDS011;2545;50.892;5.740;2023-03-12T05:17:12;7.80;;;3.27;;
5052;SDS011;2545;50.892;5.740;2023-03-12T05:19:38;6.07;;;3.00;;
5052;SDS011;2545;50.892;5.740;2023-03-12T05:22:03;7.07;;;3.30;;
5052;SDS011;2545;50.892;5.740;2023-03-12T05:24:28;6.33;;;3.07;;
5052;SDS011;2545;50.892;5.740;2023-03-12T05:26:54;14.57;;;4.00;;
5052;SDS011;2545;50.892;5.740;2023-03-12T05:29:19;4.43;;;2.70;;
5052;SDS011;2545;50.892;5.740;2023-03-12T05:31:45;4.83;;;3.00;;
5052;SDS011;2545;50.892;5.740;2023-03-12T05:34:11;5.60;;;3.10;;
5052;SDS011;2545;50.892;5.740;2023-03-12T05:36:37;7.13;;;3.07;;
5052;SDS011;2545;50.892;5.740;2023-03-12T05:39:02;4.93;;;3.83;;
5052;SDS011;2545;50.892;5.740;2023-03-12T05:41:28;6.73;;;3.10;;
5052;SDS011;2545;50.892;5.740;2023-03-12T05:43:54;5.80;;;3.80;;
5052;SDS011;2545;50.892;5.740;2023-03-12T05:46:21;4.23;;;3.17;;
5052;SDS011;2545;50.892;5.740;2023-03-12T05:48:47;3.60;;;3.20;;
5052;SDS011;2545;50.892;5.740;2023-03-12T05:51:13;4.67;;;3.60;;
5052;SDS011;2545;50.892;5.740;2023-03-12T05:53:38;11.80;;;3.83;;
5052;SDS011;2545;50.892;5.740;2023-03-12T05:56:04;8.43;;;3.43;;
5052;SDS011;2545;50.892;5.740;2023-03-12T05:58:32;5.67;;;3.43;;
5052;SDS011;2545;50.892;5.740;2023-03-12T06:00:58;9.93;;;4.47;;
5052;SDS011;2545;50.892;5.740;2023-03-12T06:03:23;10.03;;;4.60;;
5052;SDS011;2545;50.892;5.740;2023-03-12T06:05:49;6.20;;;3.70;;
5052;SDS011;2545;50.892;5.740;2023-03-12T06:08:14;7.40;;;3.13;;
5052;SDS011;2545;50.892;5.740;2023-03-12T06:10:40;7.23;;;3.50;;
5052;SDS011;2545;50.892;5.740;2023-03-12T06:13:05;7.07;;;3.30;;
5052;SDS011;2545;50.892;5.740;2023-03-12T06:15:31;4.33;;;3.63;;
5052;SDS011;2545;50.892;5.740;2023-03-12T06:17:56;8.27;;;4.13;;
5052;SDS011;2545;50.892;5.740;2023-03-12T06:20:22;10.43;;;3.80;;
5052;SDS011;2545;50.892;5.740;2023-03-12T06:22:47;8.03;;;4.10;;
5052;SDS011;2545;50.892;5.740;2023-03-12T06:25:13;7.67;;;4.50;;
5052;SDS011;2545;50.892;5.740;2023-03-12T06:27:38;7.57;;;3.60;;
5052;SDS011;2545;50.892;5.740;2023-03-12T06:30:05;9.00;;;4.37;;
5052;SDS011;2545;50.892;5.740;2023-03-12T06:32:30;6.70;;;4.33;;
5052;SDS011;2545;50.892;5.740;2023-03-12T06:34:56;11.50;;;4.70;;
5052;SDS011;2545;50.892;5.740;2023-03-12T06:37:24;8.47;;;3.73;;
5052;SDS011;2545;50.892;5.740;2023-03-12T06:39:49;7.20;;;4.00;;
5052;SDS011;2545;50.892;5.740;2023-03-12T06:42:15;6.70;;;3.90;;
5052;SDS011;2545;50.892;5.740;2023-03-12T06:44:41;5.80;;;4.43;;
5052;SDS011;2545;50.892;5.740;2023-03-12T06:47:06;15.23;;;4.37;;
5052;SDS011;2545;50.892;5.740;2023-03-12T06:49:32;9.87;;;3.73;;
5052;SDS011;2545;50.892;5.740;2023-03-12T06:51:58;6.13;;;3.97;;
5052;SDS011;2545;50.892;5.740;2023-03-12T06:54:23;9.03;;;4.00;;
5052;SDS011;2545;50.892;5.740;2023-03-12T06:56:49;10.00;;;3.63;;
5052;SDS011;2545;50.892;5.740;2023-03-12T06:59:14;7.47;;;4.43;;
5052;SDS011;2545;50.892;5.740;2023-03-12T07:01:39;7.10;;;3.67;;
5052;SDS011;2545;50.892;5.740;2023-03-12T07:04:05;6.50;;;4.80;;
5052;SDS011;2545;50.892;5.740;2023-03-12T07:06:30;6.33;;;4.80;;
5052;SDS011;2545;50.892;5.740;2023-03-12T07:08:55;7.73;;;4.77;;
5052;SDS011;2545;50.892;5.740;2023-03-12T07:11:21;7.93;;;5.07;;
5052;SDS011;2545;50.892;5.740;2023-03-12T07:13:46;15.70;;;6.13;;
5052;SDS011;2545;50.892;5.740;2023-03-12T07:16:11;17.00;;;5.27;;
5052;SDS011;2545;50.892;5.740;2023-03-12T07:18:38;8.27;;;5.10;;
5052;SDS011;2545;50.892;5.740;2023-03-12T07:21:04;12.33;;;5.70;;
5052;SDS011;2545;50.892;5.740;2023-03-12T07:23:29;8.47;;;5.90;;
5052;SDS011;2545;50.892;5.740;2023-03-12T07:25:55;9.77;;;5.20;;
5052;SDS011;2545;50.892;5.740;2023-03-12T07:28:20;9.17;;;5.60;;
5052;SDS011;2545;50.892;5.740;2023-03-12T07:30:46;6.33;;;5.37;;
5052;SDS011;2545;50.892;5.740;2023-03-12T07:33:14;6.60;;;5.20;;
5052;SDS011;2545;50.892;5.740;2023-03-12T07:35:41;7.87;;;4.90;;
5052;SDS011;2545;50.892;5.740;2023-03-12T07:38:06;10.20;;;5.43;;
5052;SDS011;2545;50.892;5.740;2023-03-12T07:40:32;17.40;;;5.97;;
5052;SDS011;2545;50.892;5.740;2023-03-12T07:42:58;11.90;;;5.80;;
5052;SDS011;2545;50.892;5.740;2023-03-12T07:45:23;12.97;;;5.67;;
5052;SDS011;2545;50.892;5.740;2023-03-12T07:47:49;12.30;;;6.77;;
5052;SDS011;2545;50.892;5.740;2023-03-12T07:50:15;17.20;;;6.60;;
5052;SDS011;2545;50.892;5.740;2023-03-12T07:52:41;11.20;;;6.20;;
5052;SDS011;2545;50.892;5.740;2023-03-12T07:55:07;10.10;;;5.80;;
5052;SDS011;2545;50.892;5.740;2023-03-12T07:57:33;11.17;;;5.77;;
5052;SDS011;2545;50.892;5.740;2023-03-12T07:59:59;13.90;;;7.30;;
5052;SDS011;2545;50.892;5.740;2023-03-12T08:02:24;11.00;;;6.23;;
5052;SDS011;2545;50.892;5.740;2023-03-12T08:04:50;13.00;;;7.10;;
5052;SDS011;2545;50.892;5.740;2023-03-12T08:07:15;9.50;;;7.00;;
5052;SDS011;2545;50.892;5.740;2023-03-12T08:09:40;10.13;;;6.30;;
5052;SDS011;2545;50.892;5.740;2023-03-12T08:12:06;18.90;;;7.50;;
5052;SDS011;2545;50.892;5.740;2023-03-12T08:14:32;14.33;;;7.60;;
5052;SDS011;2545;50.892;5.740;2023-03-12T08:16:58;9.33;;;7.07;;
5052;SDS011;2545;50.892;5.740;2023-03-12T08:19:24;14.20;;;8.10;;
5052;SDS011;2545;50.892;5.740;2023-03-12T08:21:50;11.03;;;7.50;;
5052;SDS011;2545;50.892;5.740;2023-03-12T08:24:17;15.43;;;8.13;;
5052;SDS011;2545;50.892;5.740;2023-03-12T08:26:43;12.20;;;8.07;;
5052;SDS011;2545;50.892;5.740;2023-03-12T08:29:08;16.10;;;8.53;;
5052;SDS011;2545;50.892;5.740;2023-03-12T08:31:33;15.50;;;8.87;;
5052;SDS011;2545;50.892;5.740;2023-03-12T08:33:59;15.73;;;10.20;;
5052;SDS011;2545;50.892;5.740;2023-03-12T08:36:24;12.83;;;8.23;;
5052;SDS011;2545;50.892;5.740;2023-03-12T08:38:50;13.10;;;7.90;;
5052;SDS011;2545;50.892;5.740;2023-03-12T08:41:15;17.13;;;6.87;;
5052;SDS011;2545;50.892;5.740;2023-03-12T08:43:40;10.57;;;6.83;;
5052;SDS011;2545;50.892;5.740;2023-03-12T08:46:05;16.50;;;6.07;;
5052;SDS011;2545;50.892;5.740;2023-03-12T08:48:31;10.20;;;7.17;;
5052;SDS011;2545;50.892;5.740;2023-03-12T08:50:57;16.00;;;7.13;;
5052;SDS011;2545;50.892;5.740;2023-03-12T08:53:24;10.33;;;6.93;;
5052;SDS011;2545;50.892;5.740;2023-03-12T08:55:51;11.60;;;6.37;;
5052;SDS011;2545;50.892;5.740;2023-03-12T08:58:18;12.07;;;7.00;;
5052;SDS011;2545;50.892;5.740;2023-03-12T09:00:43;15.33;;;7.40;;
5052;SDS011;2545;50.892;5.740;2023-03-12T09:03:08;9.47;;;6.67;;
5052;SDS011;2545;50.892;5.740;2023-03-12T09:05:37;22.00;;;8.13;;
5052;SDS011;2545;50.892;5.740;2023-03-12T09:08:03;14.37;;;7.00;;
5052;SDS011;2545;50.892;5.740;2023-03-12T09:10:28;14.53;;;7.77;;
5052;SDS011;2545;50.892;5.740;2023-03-12T09:12:53;16.03;;;7.57;;
5052;SDS011;2545;50.892;5.740;2023-03-12T09:15:19;13.00;;;7.43;;
5052;SDS011;2545;50.892;5.740;2023-03-12T09:17:44;14.33;;;8.20;;
5052;SDS011;2545;50.892;5.740;2023-03-12T09:20:11;14.20;;;7.10;;
5052;SDS011;2545;50.892;5.740;2023-03-12T09:22:38;13.70;;;8.37;;
5052;SDS011;2545;50.892;5.740;2023-03-12T09:25:06;12.87;;;7.33;;
5052;SDS011;2545;50.892;5.740;2023-03-12T09:27:39;24.50;;;8.50;;
5052;SDS011;2545;50.892;5.740;2023-03-12T09:30:07;14.50;;;7.60;;
5052;SDS011;2545;50.892;5.740;2023-03-12T09:32:34;12.17;;;7.33;;
5052;SDS011;2545;50.892;5.740;2023-03-12T09:35:00;23.07;;;8.50;;
5052;SDS011;2545;50.892;5.740;2023-03-12T09:37:25;17.87;;;7.00;;
5052;SDS011;2545;50.892;5.740;2023-03-12T09:39:51;23.63;;;8.27;;
5052;SDS011;2545;50.892;5.740;2023-03-12T09:42:22;19.23;;;7.93;;
5052;SDS011;2545;50.892;5.740;2023-03-12T09:44:49;16.43;;;8.77;;
5052;SDS011;2545;50.892;5.740;2023-03-12T09:49:48;29.07;;;9.60;;
5052;SDS011;2545;50.892;5.740;2023-03-12T09:52:23;29.10;;;10.43;;
5052;SDS011;2545;50.892;5.740;2023-03-12T09:57:25;51.50;;;11.83;;
5052;SDS011;2545;50.892;5.740;2023-03-12T09:59:52;31.60;;;12.57;;
5052;SDS011;2545;50.892;5.740;2023-03-12T10:04:59;34.17;;;12.20;;
5052;SDS011;2545;50.892;5.740;2023-03-12T10:07:46;32.57;;;13.23;;
5052;SDS011;2545;50.892;5.740;2023-03-12T10:10:41;40.07;;;12.40;;
5052;SDS011;2545;50.892;5.740;2023-03-12T10:18:56;33.57;;;12.67;;
5052;SDS011;2545;50.892;5.740;2023-03-12T10:21:27;45.20;;;12.60;;
5052;SDS011;2545;50.892;5.740;2023-03-12T10:26:48;35.00;;;11.93;;
5052;SDS011;2545;50.892;5.740;2023-03-12T10:29:16;32.97;;;13.60;;
5052;SDS011;2545;50.892;5.740;2023-03-12T10:34:24;54.97;;;12.27;;
5052;SDS011;2545;50.892;5.740;2023-03-12T10:40:05;38.20;;;12.47;;
5052;SDS011;2545;50.892;5.740;2023-03-12T10:42:31;47.23;;;13.33;;
5052;SDS011;2545;50.892;5.740;2023-03-12T10:47:24;39.37;;;11.13;;
5052;SDS011;2545;50.892;5.740;2023-03-12T10:49:56;32.13;;;10.03;;
5052;SDS011;2545;50.892;5.740;2023-03-12T10:52:37;23.03;;;9.10;;
5052;SDS011;2545;50.892;5.740;2023-03-12T10:55:09;28.87;;;9.10;;
5052;SDS011;2545;50.892;5.740;2023-03-12T10:57:45;36.70;;;8.43;;
5052;SDS011;2545;50.892;5.740;2023-03-12T11:00:15;40.73;;;9.77;;
5052;SDS011;2545;50.892;5.740;2023-03-12T11:02:43;35.07;;;9.10;;
5052;SDS011;2545;50.892;5.740;2023-03-12T11:08:01;29.03;;;8.07;;
5052;SDS011;2545;50.892;5.740;2023-03-12T11:12:57;40.13;;;7.47;;
5052;SDS011;2545;50.892;5.740;2023-03-12T11:15:46;14.87;;;5.93;;
5052;SDS011;2545;50.892;5.740;2023-03-12T11:23:34;24.10;;;5.93;;
5052;SDS011;2545;50.892;5.740;2023-03-12T11:26:16;25.93;;;6.70;;
5052;SDS011;2545;50.892;5.740;2023-03-12T11:28:45;31.07;;;6.60;;
5052;SDS011;2545;50.892;5.740;2023-03-12T11:31:14;26.87;;;5.60;;
5052;SDS011;2545;50.892;5.740;2023-03-12T11:33:46;32.33;;;6.23;;
5052;SDS011;2545;50.892;5.740;2023-03-12T11:36:28;34.30;;;6.63;;
5052;SDS011;2545;50.892;5.740;2023-03-12T11:44:24;20.63;;;6.20;;
5052;SDS011;2545;50.892;5.740;2023-03-12T11:47:18;25.03;;;5.87;;
5052;SDS011;2545;50.892;5.740;2023-03-12T11:49:59;23.10;;;6.40;;
5052;SDS011;2545;50.892;5.740;2023-03-12T11:52:53;32.73;;;6.30;;
5052;SDS011;2545;50.892;5.740;2023-03-12T11:55:39;23.87;;;6.37;;
5052;SDS011;2545;50.892;5.740;2023-03-12T12:01:08;37.37;;;8.23;;
5052;SDS011;2545;50.892;5.740;2023-03-12T12:11:32;31.33;;;7.80;;
5052;SDS011;2545;50.892;5.740;2023-03-12T12:16:58;25.43;;;5.17;;
5052;SDS011;2545;50.892;5.740;2023-03-12T12:27:26;30.67;;;4.87;;
5052;SDS011;2545;50.892;5.740;2023-03-12T12:40:51;30.60;;;5.23;;
5052;SDS011;2545;50.892;5.740;2023-03-12T12:43:24;21.70;;;5.10;;
5052;SDS011;2545;50.892;5.740;2023-03-12T12:45:52;25.23;;;4.90;;
5052;SDS011;2545;50.892;5.740;2023-03-12T12:48:34;23.17;;;5.90;;
5052;SDS011;2545;50.892;5.740;2023-03-12T12:51:17;28.47;;;5.53;;
5052;SDS011;2545;50.892;5.740;2023-03-12T12:56:25;39.87;;;7.33;;
5052;SDS011;2545;50.892;5.740;2023-03-12T13:01:47;28.83;;;6.10;;
5052;SDS011;2545;50.892;5.740;2023-03-12T13:04:24;29.37;;;6.00;;
5052;SDS011;2545;50.892;5.740;2023-03-12T13:07:03;36.63;;;6.87;;
5052;SDS011;2545;50.892;5.740;2023-03-12T13:09:47;31.73;;;6.80;;
5052;SDS011;2545;50.892;5.740;2023-03-12T13:14:52;30.83;;;6.30;;
5052;SDS011;2545;50.892;5.740;2023-03-12T13:17:20;26.07;;;6.47;;
5052;SDS011;2545;50.892;5.740;2023-03-12T13:19:46;31.17;;;6.37;;
5052;SDS011;2545;50.892;5.740;2023-03-12T13:22:18;41.53;;;5.87;;
5052;SDS011;2545;50.892;5.740;2023-03-12T13:24:59;31.37;;;5.40;;
5052;SDS011;2545;50.892;5.740;2023-03-12T13:27:40;38.70;;;7.90;;
5052;SDS011;2545;50.892;5.740;2023-03-12T13:48:22;30.07;;;6.30;;
5052;SDS011;2545;50.892;5.740;2023-03-12T13:51:00;36.00;;;7.57;;
5052;SDS011;2545;50.892;5.740;2023-03-12T13:53:36;28.07;;;5.50;;
5052;SDS011;2545;50.892;5.740;2023-03-12T13:56:12;22.20;;;4.93;;
5052;SDS011;2545;50.892;5.740;2023-03-12T13:58:47;22.83;;;5.20;;
5052;SDS011;2545;50.892;5.740;2023-03-12T14:01:18;37.73;;;6.33;;
5052;SDS011;2545;50.892;5.740;2023-03-12T14:03:48;36.00;;;5.70;;
5052;SDS011;2545;50.892;5.740;2023-03-12T14:06:19;29.37;;;6.27;;
5052;SDS011;2545;50.892;5.740;2023-03-12T14:11:30;25.73;;;4.63;;
5052;SDS011;2545;50.892;5.740;2023-03-12T14:14:16;25.97;;;5.57;;
5052;SDS011;2545;50.892;5.740;2023-03-12T14:16:57;27.23;;;6.87;;
5052;SDS011;2545;50.892;5.740;2023-03-12T14:19:25;27.07;;;5.90;;
5052;SDS011;2545;50.892;5.740;2023-03-12T14:21:54;33.20;;;8.30;;
5052;SDS011;2545;50.892;5.740;2023-03-12T14:24:31;30.10;;;6.47;;
5052;SDS011;2545;50.892;5.740;2023-03-12T14:27:00;35.03;;;6.00;;
5052;SDS011;2545;50.892;5.740;2023-03-12T14:32:02;19.03;;;4.80;;
5052;SDS011;2545;50.892;5.740;2023-03-12T14:34:40;29.60;;;5.63;;
5052;SDS011;2545;50.892;5.740;2023-03-12T14:37:14;22.53;;;4.90;;
5052;SDS011;2545;50.892;5.740;2023-03-12T14:39:56;38.30;;;6.90;;
5052;SDS011;2545;50.892;5.740;2023-03-12T14:42:29;23.30;;;5.40;;
5052;SDS011;2545;50.892;5.740;2023-03-12T14:45:18;31.53;;;6.00;;
5052;SDS011;2545;50.892;5.740;2023-03-12T14:47:51;25.90;;;5.50;;
5052;SDS011;2545;50.892;5.740;2023-03-12T14:50:22;22.67;;;4.47;;
5052;SDS011;2545;50.892;5.740;2023-03-12T14:52:51;33.20;;;5.20;;
5052;SDS011;2545;50.892;5.740;2023-03-12T14:55:19;27.33;;;5.83;;
5052;SDS011;2545;50.892;5.740;2023-03-12T14:57:47;35.30;;;5.90;;
5052;SDS011;2545;50.892;5.740;2023-03-12T15:00:23;21.20;;;4.90;;
5052;SDS011;2545;50.892;5.740;2023-03-12T15:02:51;29.03;;;5.50;;
5052;SDS011;2545;50.892;5.740;2023-03-12T15:05:18;24.23;;;5.40;;
5052;SDS011;2545;50.892;5.740;2023-03-12T15:07:45;22.30;;;5.27;;
5052;SDS011;2545;50.892;5.740;2023-03-12T15:10:19;28.13;;;6.50;;
5052;SDS011;2545;50.892;5.740;2023-03-12T15:12:48;31.13;;;6.50;;
5052;SDS011;2545;50.892;5.740;2023-03-12T15:18:07;21.00;;;4.10;;
5052;SDS011;2545;50.892;5.740;2023-03-12T15:20:37;33.13;;;6.90;;
5052;SDS011;2545;50.892;5.740;2023-03-12T15:23:04;28.57;;;5.87;;
5052;SDS011;2545;50.892;5.740;2023-03-12T15:25:32;38.90;;;6.57;;
5052;SDS011;2545;50.892;5.740;2023-03-12T15:28:22;29.50;;;5.57;;
5052;SDS011;2545;50.892;5.740;2023-03-12T15:33:36;23.77;;;4.33;;
5052;SDS011;2545;50.892;5.740;2023-03-12T15:38:47;28.73;;;5.40;;
5052;SDS011;2545;50.892;5.740;2023-03-12T15:41:17;27.93;;;5.03;;
5052;SDS011;2545;50.892;5.740;2023-03-12T15:44:02;28.17;;;5.93;;
5052;SDS011;2545;50.892;5.740;2023-03-12T15:46:28;18.10;;;6.63;;
5052;SDS011;2545;50.892;5.740;2023-03-12T15:48:56;25.93;;;4.80;;
5052;SDS011;2545;50.892;5.740;2023-03-12T15:51:30;30.50;;;5.37;;
5052;SDS011;2545;50.892;5.740;2023-03-12T15:54:02;34.13;;;5.47;;
5052;SDS011;2545;50.892;5.740;2023-03-12T15:56:37;34.13;;;6.97;;
5052;SDS011;2545;50.892;5.740;2023-03-12T16:01:45;23.13;;;5.53;;
5052;SDS011;2545;50.892;5.740;2023-03-12T16:04:12;23.53;;;5.47;;
5052;SDS011;2545;50.892;5.740;2023-03-12T16:06:38;26.43;;;5.43;;
5052;SDS011;2545;50.892;5.740;2023-03-12T16:09:04;19.30;;;4.10;;
5052;SDS011;2545;50.892;5.740;2023-03-12T16:11:30;45.00;;;6.00;;
5052;SDS011;2545;50.892;5.740;2023-03-12T16:14:01;18.80;;;4.63;;
5052;SDS011;2545;50.892;5.740;2023-03-12T16:16:30;21.93;;;5.10;;
5052;SDS011;2545;50.892;5.740;2023-03-12T16:18:55;28.13;;;5.13;;
5052;SDS011;2545;50.892;5.740;2023-03-12T16:21:20;27.97;;;4.87;;
5052;SDS011;2545;50.892;5.740;2023-03-12T16:23:46;21.97;;;5.37;;
5052;SDS011;2545;50.892;5.740;2023-03-12T16:26:11;26.60;;;5.63;;
5052;SDS011;2545;50.892;5.740;2023-03-12T16:28:38;21.10;;;5.73;;
5052;SDS011;2545;50.892;5.740;2023-03-12T16:31:11;31.07;;;5.30;;
5052;SDS011;2545;50.892;5.740;2023-03-12T16:33:37;21.57;;;4.90;;
5052;SDS011;2545;50.892;5.740;2023-03-12T16:36:08;24.47;;;6.27;;
5052;SDS011;2545;50.892;5.740;2023-03-12T16:38:36;27.70;;;6.30;;
5052;SDS011;2545;50.892;5.740;2023-03-12T16:41:01;29.50;;;5.30;;
5052;SDS011;2545;50.892;5.740;2023-03-12T16:43:27;27.30;;;6.13;;
5052;SDS011;2545;50.892;5.740;2023-03-12T16:45:54;33.23;;;5.27;;
5052;SDS011;2545;50.892;5.740;2023-03-12T16:48:21;17.73;;;3.93;;
5052;SDS011;2545;50.892;5.740;2023-03-12T16:50:49;14.90;;;5.13;;
5052;SDS011;2545;50.892;5.740;2023-03-12T16:53:16;33.33;;;5.43;;
5052;SDS011;2545;50.892;5.740;2023-03-12T16:58:21;31.47;;;5.00;;
5052;SDS011;2545;50.892;5.740;2023-03-12T17:00:48;25.80;;;4.60;;
5052;SDS011;2545;50.892;5.740;2023-03-12T17:03:17;32.33;;;6.00;;
5052;SDS011;2545;50.892;5.740;2023-03-12T17:05:57;33.87;;;6.87;;
5052;SDS011;2545;50.892;5.740;2023-03-12T17:08:23;20.90;;;4.30;;
5052;SDS011;2545;50.892;5.740;2023-03-12T17:10:48;35.50;;;8.33;;
5052;SDS011;2545;50.892;5.740;2023-03-12T17:13:16;22.17;;;5.43;;
5052;SDS011;2545;50.892;5.740;2023-03-12T17:15:43;30.80;;;6.17;;
5052;SDS011;2545;50.892;5.740;2023-03-12T17:18:10;27.80;;;6.00;;